sensor_id;sensor_type;location;lat;lon;timestamp;pressure;altitude;pressure_sealevel;temperature;humidity
8069;BME280;4077;43.702;24.896;2023-05-09T00:01:25;100098.25;;;9.72;100.00
8069;BME280;4077;43.702;24.896;2023-05-09T00:03:51;100086.94;;;9.67;100.00
8069;BME280;4077;43.702;24.896;2023-05-09T00:06:17;100089.97;;;9.84;100.00
8069;BME280;4077;43.702;24.896;2023-05-09T00:08:43;100082.88;;;9.75;100.00
8069;BME280;4077;43.702;24.896;2023-05-09T00:11:09;100090.16;;;9.93;100.00
8069;BME280;4077;43.702;24.896;2023-05-09T00:13:34;100093.47;;;9.87;100.00
8069;BME280;4077;43.702;24.896;2023-05-09T00:16:00;100086.34;;;9.77;100.00
8069;BME280;4077;43.702;24.896;2023-05-09T00:18:25;100094.63;;;9.64;100.00
8069;BME280;4077;43.702;24.896;2023-05-09T00:20:50;100085.63;;;9.83;100.00
8069;BME280;4077;43.702;24.896;2023-05-09T00:23:16;100072.75;;;9.83;100.00
8069;BME280;4077;43.702;24.896;2023-05-09T00:25:42;100078.91;;;9.90;100.00
8069;BME280;4077;43.702;24.896;2023-05-09T00:28:07;100065.94;;;9.86;100.00
8069;BME280;4077;43.702;24.896;2023-05-09T00:30:33;100075.94;;;9.74;100.00
8069;BME280;4077;43.702;24.896;2023-05-09T00:32:58;100083.91;;;9.82;100.00
8069;BME280;4077;43.702;24.896;2023-05-09T00:35:24;100069.81;;;9.68;100.00
8069;BME280;4077;43.702;24.896;2023-05-09T00:37:49;100073.31;;;9.71;100.00
8069;BME280;4077;43.702;24.896;2023-05-09T00:40:15;100070.59;;;9.65;100.00
8069;BME280;4077;43.702;24.896;2023-05-09T00:42:40;100082.09;;;9.45;100.00
8069;BME280;4077;43.702;24.896;2023-05-09T00:45:06;100071.91;;;9.49;100.00
8069;BME280;4077;43.702;24.896;2023-05-09T00:47:32;100084.25;;;9.61;100.00
8069;BME280;4077;43.702;24.896;2023-05-09T00:49:58;100077.41;;;9.63;100.00
8069;BME280;4077;43.702;24.896;2023-05-09T00:52:24;100092.66;;;9.54;100.00
8069;BME280;4077;43.702;24.896;2023-05-09T00:54:52;100084.69;;;9.45;100.00
8069;BME280;4077;43.702;24.896;2023-05-09T00:57:17;100099.94;;;9.37;100.00
8069;BME280;4077;43.702;24.896;2023-05-09T00:59:43;100099.31;;;9.46;100.00
8069;BME280;4077;43.702;24.896;2023-05-09T01:02:08;100080.06;;;9.33;100.00
8069;BME280;4077;43.702;24.896;2023-05-09T01:04:34;100103.63;;;9.47;100.00
8069;BME280;4077;43.702;24.896;2023-05-09T01:07:10;100081.44;;;9.53;100.00
8069;BME280;4077;43.702;24.896;2023-05-09T01:09:45;100091.06;;;9.59;100.00
8069;BME280;4077;43.702;24.896;2023-05-09T01:12:41;100095.31;;;9.57;100.00
8069;BME280;4077;43.702;24.896;2023-05-09T01:15:40;100098.63;;;9.53;100.00
8069;BME280;4077;43.702;24.896;2023-05-09T01:20:42;100101.13;;;9.50;100.00
8069;BME280;4077;43.702;24.896;2023-05-09T01:26:24;100111.91;;;9.03;100.00
8069;BME280;4077;43.702;24.896;2023-05-09T01:31:39;100098.34;;;9.09;100.00
8069;BME280;4077;43.702;24.896;2023-05-09T01:34:06;100100.03;;;9.07;100.00
8069;BME280;4077;43.702;24.896;2023-05-09T01:36:35;100096.59;;;9.08;100.00
8069;BME280;4077;43.702;24.896;2023-05-09T01:39:02;100100.03;;;9.07;100.00
8069;BME280;4077;43.702;24.896;2023-05-09T01:41:30;100091.75;;;8.87;100.00
8069;BME280;4077;43.702;24.896;2023-05-09T01:43:58;100077.41;;;8.97;100.00
8069;BME280;4077;43.702;24.896;2023-05-09T01:46:27;100101.81;;;9.11;100.00
8069;BME280;4077;43.702;24.896;2023-05-09T01:48:53;100090.25;;;8.95;100.00
8069;BME280;4077;43.702;24.896;2023-05-09T01:51:20;100114.78;;;9.13;100.00
8069;BME280;4077;43.702;24.896;2023-05-09T01:53:47;100098.31;;;9.08;100.00
8069;BME280;4077;43.702;24.896;2023-05-09T01:56:14;100077.22;;;8.91;100.00
8069;BME280;4077;43.702;24.896;2023-05-09T01:58:40;100105.88;;;9.01;100.00
8069;BME280;4077;43.702;24.896;2023-05-09T02:01:06;100091.97;;;9.26;100.00
8069;BME280;4077;43.702;24.896;2023-05-09T02:03:33;100112.66;;;9.31;100.00
8069;BME280;4077;43.702;24.896;2023-05-09T02:06:00;100112.75;;;9.02;100.00
8069;BME280;4077;43.702;24.896;2023-05-09T02:08:27;100099.34;;;9.14;100.00
8069;BME280;4077;43.702;24.896;2023-05-09T02:10:53;100109.28;;;9.00;100.00
8069;BME280;4077;43.702;24.896;2023-05-09T02:13:19;100092.03;;;8.98;100.00
8069;BME280;4077;43.702;24.896;2023-05-09T02:15:45;100104.63;;;8.87;100.00
8069;BME280;4077;43.702;24.896;2023-05-09T02:18:11;100101.38;;;8.94;100.00
8069;BME280;4077;43.702;24.896;2023-05-09T02:20:38;100091.47;;;8.78;100.00
8069;BME280;4077;43.702;24.896;2023-05-09T02:23:04;100093.31;;;8.82;100.00
8069;BME280;4077;43.702;24.896;2023-05-09T02:25:30;100102.38;;;8.69;100.00
8069;BME280;4077;43.702;24.896;2023-05-09T02:27:57;100103.72;;;8.57;100.00
8069;BME280;4077;43.702;24.896;2023-05-09T02:30:25;100101.94;;;8.54;100.00
8069;BME280;4077;43.702;24.896;2023-05-09T02:32:56;100115.38;;;8.74;100.00
8069;BME280;4077;43.702;24.896;2023-05-09T02:35:25;100108.94;;;8.88;100.00
8069;BME280;4077;43.702;24.896;2023-05-09T02:37:52;100102.59;;;8.77;100.00
8069;BME280;4077;43.702;24.896;2023-05-09T02:40:18;100103.34;;;8.73;100.00
8069;BME280;4077;43.702;24.896;2023-05-09T02:42:44;100105.13;;;8.75;100.00
8069;BME280;4077;43.702;24.896;2023-05-09T02:45:10;100113.66;;;8.73;100.00
8069;BME280;4077;43.702;24.896;2023-05-09T02:47:36;100110.50;;;8.83;100.00
8069;BME280;4077;43.702;24.896;2023-05-09T02:50:02;100115.59;;;8.82;100.00
8069;BME280;4077;43.702;24.896;2023-05-09T02:52:28;100121.94;;;8.93;100.00
8069;BME280;4077;43.702;24.896;2023-05-09T02:54:53;100128.91;;;8.97;100.00
8069;BME280;4077;43.702;24.896;2023-05-09T02:57:19;100128.84;;;8.94;100.00
8069;BME280;4077;43.702;24.896;2023-05-09T02:59:44;100131.88;;;8.81;100.00
8069;BME280;4077;43.702;24.896;2023-05-09T03:02:09;100131.69;;;8.74;100.00
8069;BME280;4077;43.702;24.896;2023-05-09T03:04:35;100129.84;;;8.70;100.00
8069;BME280;4077;43.702;24.896;2023-05-09T03:07:01;100134.75;;;8.61;100.00
8069;BME280;4077;43.702;24.896;2023-05-09T03:09:26;100134.56;;;8.55;100.00
8069;BME280;4077;43.702;24.896;2023-05-09T03:11:51;100130.22;;;8.53;100.00
8069;BME280;4077;43.702;24.896;2023-05-09T03:14:17;100139.81;;;8.58;100.00
8069;BME280;4077;43.702;24.896;2023-05-09T03:16:42;100114.41;;;8.40;100.00
8069;BME280;4077;43.702;24.896;2023-05-09T03:19:08;100131.78;;;8.49;100.00
8069;BME280;4077;43.702;24.896;2023-05-09T03:21:33;100124.88;;;8.46;100.00
8069;BME280;4077;43.702;24.896;2023-05-09T03:23:58;100136.03;;;8.47;100.00
8069;BME280;4077;43.702;24.896;2023-05-09T03:26:24;100136.75;;;8.43;100.00
8069;BME280;4077;43.702;24.896;2023-05-09T03:28:50;100136.81;;;8.44;100.00
8069;BME280;4077;43.702;24.896;2023-05-09T03:31:16;100129.91;;;8.43;100.00
8069;BME280;4077;43.702;24.896;2023-05-09T03:33:41;100144.78;;;8.52;100.00
8069;BME280;4077;43.702;24.896;2023-05-09T03:36:07;100141.56;;;8.59;100.00
8069;BME280;4077;43.702;24.896;2023-05-09T03:38:32;100139.81;;;8.58;100.00
8069;BME280;4077;43.702;24.896;2023-05-09T03:40:58;100151.06;;;8.62;100.00
8069;BME280;4077;43.702;24.896;2023-05-09T03:43:23;100134.09;;;8.40;100.00
8069;BME280;4077;43.702;24.896;2023-05-09T03:45:49;100156.06;;;8.57;100.00
8069;BME280;4077;43.702;24.896;2023-05-09T03:48:14;100154.72;;;8.70;100.00
8069;BME280;4077;43.702;24.896;2023-05-09T03:50:40;100143.59;;;8.71;100.00
8069;BME280;4077;43.702;24.896;2023-05-09T03:53:06;100163.03;;;8.90;100.00
8069;BME280;4077;43.702;24.896;2023-05-09T03:55:31;100153.41;;;8.84;100.00
8069;BME280;4077;43.702;24.896;2023-05-09T03:57:57;100166.00;;;8.73;100.00
8069;BME280;4077;43.702;24.896;2023-05-09T04:00:22;100167.38;;;8.62;100.00
8069;BME280;4077;43.702;24.896;2023-05-09T04:02:48;100169.22;;;8.66;100.00
8069;BME280;4077;43.702;24.896;2023-05-09T04:05:14;100163.00;;;8.60;100.00
8069;BME280;4077;43.702;24.896;2023-05-09T04:07:40;100169.22;;;8.66;100.00
8069;BME280;4077;43.702;24.896;2023-05-09T04:10:07;100169.41;;;8.72;100.00
8069;BME280;4077;43.702;24.896;2023-05-09T04:12:32;100164.50;;;8.82;100.00
8069;BME280;4077;43.702;24.896;2023-05-09T04:14:58;100183.44;;;8.84;100.00
8069;BME280;4077;43.702;24.896;2023-05-09T04:17:23;100173.06;;;8.81;100.00
8069;BME280;4077;43.702;24.896;2023-05-09T04:19:49;100171.38;;;8.81;100.00
8069;BME280;4077;43.702;24.896;2023-05-09T04:22:14;100164.97;;;8.68;100.00
8069;BME280;4077;43.702;24.896;2023-05-09T04:24:40;100172.50;;;8.62;100.00
8069;BME280;4077;43.702;24.896;2023-05-09T04:27:06;100157.34;;;8.71;100.00
8069;BME280;4077;43.702;24.896;2023-05-09T04:29:32;100168.53;;;8.72;100.00
8069;BME280;4077;43.702;24.896;2023-05-09T04:31:58;100168.34;;;8.66;100.00
8069;BME280;4077;43.702;24.896;2023-05-09T04:34:23;100183.97;;;8.72;100.00
8069;BME280;4077;43.702;24.896;2023-05-09T04:36:50;100180.50;;;8.71;100.00
8069;BME280;4077;43.702;24.896;2023-05-09T04:39:16;100180.47;;;8.70;100.00
8069;BME280;4077;43.702;24.896;2023-05-09T04:41:41;100171.69;;;8.63;100.00
8069;BME280;4077;43.702;24.896;2023-05-09T04:44:09;100178.50;;;8.61;100.00
8069;BME280;4077;43.702;24.896;2023-05-09T04:46:34;100174.16;;;8.60;100.00
8069;BME280;4077;43.702;24.896;2023-05-09T04:49:00;100182.03;;;8.65;100.00
8069;BME280;4077;43.702;24.896;2023-05-09T04:51:25;100195.19;;;8.74;100.00
8069;BME280;4077;43.702;24.896;2023-05-09T04:53:51;100184.84;;;8.72;100.00
8069;BME280;4077;43.702;24.896;2023-05-09T04:56:16;100200.72;;;8.88;100.00
8069;BME280;4077;43.702;24.896;2023-05-09T04:58:42;100174.53;;;8.72;100.00
8069;BME280;4077;43.702;24.896;2023-05-09T05:01:07;100207.06;;;8.99;100.00
8069;BME280;4077;43.702;24.896;2023-05-09T05:03:32;100206.91;;;8.93;100.00
8069;BME280;4077;43.702;24.896;2023-05-09T05:05:58;100209.91;;;9.08;100.00
8069;BME280;4077;43.702;24.896;2023-05-09T05:08:23;100208.56;;;9.21;100.00
8069;BME280;4077;43.702;24.896;2023-05-09T05:10:49;100206.59;;;9.12;100.00
8069;BME280;4077;43.702;24.896;2023-05-09T05:13:15;100214.97;;;9.05;100.00
8069;BME280;4077;43.702;24.896;2023-05-09T05:15:41;100193.56;;;8.77;100.00
8069;BME280;4077;43.702;24.896;2023-05-09T05:18:06;100190.34;;;8.85;100.00
8069;BME280;4077;43.702;24.896;2023-05-09T05:20:32;100211.03;;;8.88;100.00
8069;BME280;4077;43.702;24.896;2023-05-09T05:22:57;100195.72;;;8.92;100.00
8069;BME280;4077;43.702;24.896;2023-05-09T05:25:24;100197.06;;;8.80;100.00
8069;BME280;4077;43.702;24.896;2023-05-09T05:27:49;100186.47;;;8.70;100.00
8069;BME280;4077;43.702;24.896;2023-05-09T05:30:15;100199.53;;;8.76;100.00
8069;BME280;4077;43.702;24.896;2023-05-09T05:32:41;100203.34;;;8.89;100.00
8069;BME280;4077;43.702;24.896;2023-05-09T05:35:06;100195.78;;;8.94;100.00
8069;BME280;4077;43.702;24.896;2023-05-09T05:37:34;100209.50;;;8.94;100.00
8069;BME280;4077;43.702;24.896;2023-05-09T05:39:59;100206.16;;;8.68;100.00
8069;BME280;4077;43.702;24.896;2023-05-09T05:42:25;100207.44;;;8.83;100.00
8069;BME280;4077;43.702;24.896;2023-05-09T05:44:50;100203.09;;;8.80;100.00
8069;BME280;4077;43.702;24.896;2023-05-09T05:47:16;100207.41;;;8.81;100.00
8069;BME280;4077;43.702;24.896;2023-05-09T05:49:41;100205.63;;;8.79;100.00
8069;BME280;4077;43.702;24.896;2023-05-09T05:52:15;100206.75;;;8.88;100.00
8069;BME280;4077;43.702;24.896;2023-05-09T05:54:41;100211.75;;;8.84;100.00
8069;BME280;4077;43.702;24.896;2023-05-09T05:57:06;100207.44;;;8.83;100.00
8069;BME280;4077;43.702;24.896;2023-05-09T05:59:32;100221.06;;;8.79;100.00
8069;BME280;4077;43.702;24.896;2023-05-09T06:01:57;100224.75;;;8.87;100.00
8069;BME280;4077;43.702;24.896;2023-05-09T06:04:23;100224.56;;;8.81;100.00
8069;BME280;4077;43.702;24.896;2023-05-09T06:06:49;100227.84;;;8.76;100.00
8069;BME280;4077;43.702;24.896;2023-05-09T06:09:15;100231.53;;;8.85;100.00
8069;BME280;4077;43.702;24.896;2023-05-09T06:11:40;100212.75;;;8.87;100.00
8069;BME280;4077;43.702;24.896;2023-05-09T06:14:06;100215.31;;;8.87;100.00
8069;BME280;4077;43.702;24.896;2023-05-09T06:16:31;100220.84;;;8.99;100.00
8069;BME280;4077;43.702;24.896;2023-05-09T06:18:57;100212.16;;;8.97;100.00
8069;BME280;4077;43.702;24.896;2023-05-09T06:21:22;100212.47;;;9.07;100.00
8069;BME280;4077;43.702;24.896;2023-05-09T06:23:47;100209.03;;;9.08;100.00
8069;BME280;4077;43.702;24.896;2023-05-09T06:26:13;100220.28;;;9.11;100.00
8069;BME280;4077;43.702;24.896;2023-05-09T06:28:39;100217.59;;;9.07;100.00
8069;BME280;4077;43.702;24.896;2023-05-09T06:31:04;100213.78;;;8.94;100.00
8069;BME280;4077;43.702;24.896;2023-05-09T06:33:30;100216.56;;;9.00;100.00
8069;BME280;4077;43.702;24.896;2023-05-09T06:35:55;100213.16;;;9.01;100.00
8069;BME280;4077;43.702;24.896;2023-05-09T06:38:21;100216.63;;;9.03;100.00
8069;BME280;4077;43.702;24.896;2023-05-09T06:40:46;100225.25;;;9.05;100.00
8069;BME280;4077;43.702;24.896;2023-05-09T06:43:12;100218.47;;;9.07;100.00
8069;BME280;4077;43.702;24.896;2023-05-09T06:45:37;100224.31;;;9.01;100.00
8069;BME280;4077;43.702;24.896;2023-05-09T06:48:03;100228.19;;;9.17;100.00
8069;BME280;4077;43.702;24.896;2023-05-09T06:50:28;100244.41;;;9.13;100.00
8069;BME280;4077;43.702;24.896;2023-05-09T06:52:54;100240.13;;;9.14;100.00
8069;BME280;4077;43.702;24.896;2023-05-09T06:55:19;100234.84;;;9.09;100.00
8069;BME280;4077;43.702;24.896;2023-05-09T06:57:45;100224.22;;;8.98;100.00
8069;BME280;4077;43.702;24.896;2023-05-09T07:00:11;100242.38;;;9.03;100.00
8069;BME280;4077;43.702;24.896;2023-05-09T07:02:36;100203.19;;;8.85;100.00
8069;BME280;4077;43.702;24.896;2023-05-09T07:05:06;100226.22;;;9.07;100.00
8069;BME280;4077;43.702;24.896;2023-05-09T07:07:34;100223.63;;;9.07;100.00
8069;BME280;4077;43.702;24.896;2023-05-09T07:10:00;100226.78;;;9.27;100.00
8069;BME280;4077;43.702;24.896;2023-05-09T07:12:30;100202.75;;;9.28;100.00
8069;BME280;4077;43.702;24.896;2023-05-09T07:14:55;100222.50;;;9.27;100.00
8069;BME280;4077;43.702;24.896;2023-05-09T07:17:21;100232.88;;;9.30;100.00
8069;BME280;4077;43.702;24.896;2023-05-09T07:19:47;100232.63;;;9.21;100.00
8069;BME280;4077;43.702;24.896;2023-05-09T07:22:12;100231.75;;;9.21;100.00
8069;BME280;4077;43.702;24.896;2023-05-09T07:24:38;100226.44;;;9.15;100.00
8069;BME280;4077;43.702;24.896;2023-05-09T07:27:03;100223.16;;;9.20;100.00
8069;BME280;4077;43.702;24.896;2023-05-09T07:29:29;100232.88;;;9.30;100.00
8069;BME280;4077;43.702;24.896;2023-05-09T07:31:54;100218.81;;;9.19;100.00
8069;BME280;4077;43.702;24.896;2023-05-09T07:34:19;100233.72;;;9.29;100.00
8069;BME280;4077;43.702;24.896;2023-05-09T07:36:45;100234.09;;;9.43;100.00
8069;BME280;4077;43.702;24.896;2023-05-09T07:39:10;100230.50;;;9.68;100.00
8069;BME280;4077;43.702;24.896;2023-05-09T07:41:36;100238.53;;;9.80;100.00
8069;BME280;4077;43.702;24.896;2023-05-09T07:44:01;100231.94;;;9.58;100.00
8069;BME280;4077;43.702;24.896;2023-05-09T07:46:27;100240.03;;;9.72;100.00
8069;BME280;4077;43.702;24.896;2023-05-09T07:48:52;100237.56;;;9.75;100.00
8069;BME280;4077;43.702;24.896;2023-05-09T07:51:18;100238.53;;;9.80;100.00
8069;BME280;4077;43.702;24.896;2023-05-09T07:53:43;100230.97;;;9.86;100.00
8069;BME280;4077;43.702;24.896;2023-05-09T07:56:09;100221.47;;;9.84;100.00
8069;BME280;4077;43.702;24.896;2023-05-09T07:58:34;100232.84;;;9.92;100.00
8069;BME280;4077;43.702;24.896;2023-05-09T08:00:59;100228.91;;;10.06;100.00
8069;BME280;4077;43.702;24.896;2023-05-09T08:03:25;100235.25;;;10.19;100.00
8069;BME280;4077;43.702;24.896;2023-05-09T08:05:54;100237.00;;;10.20;100.00
8069;BME280;4077;43.702;24.896;2023-05-09T08:08:21;100230.97;;;10.20;100.00
8069;BME280;4077;43.702;24.896;2023-05-09T08:10:46;100249.38;;;10.32;100.00
8069;BME280;4077;43.702;24.896;2023-05-09T08:13:12;100248.50;;;10.31;100.00
8069;BME280;4077;43.702;24.896;2023-05-09T08:15:37;100242.56;;;10.35;100.00
8069;BME280;4077;43.702;24.896;2023-05-09T08:18:03;100239.19;;;10.38;100.00
8069;BME280;4077;43.702;24.896;2023-05-09T08:20:28;100252.84;;;10.34;100.00
8069;BME280;4077;43.702;24.896;2023-05-09T08:22:56;100242.13;;;10.19;100.00
8069;BME280;4077;43.702;24.896;2023-05-09T08:25:21;100251.94;;;10.32;100.00
8069;BME280;4077;43.702;24.896;2023-05-09T08:27:46;100252.25;;;10.44;100.00
8069;BME280;4077;43.702;24.896;2023-05-09T08:30:12;100244.50;;;10.44;100.00
8069;BME280;4077;43.702;24.896;2023-05-09T08:32:38;100267.97;;;10.55;100.00
8069;BME280;4077;43.702;24.896;2023-05-09T08:35:04;100253.81;;;10.37;100.00
8069;BME280;4077;43.702;24.896;2023-05-09T08:37:30;100248.53;;;10.33;100.00
8069;BME280;4077;43.702;24.896;2023-05-09T08:39:55;100244.66;;;10.50;100.00
8069;BME280;4077;43.702;24.896;2023-05-09T08:42:21;100245.72;;;10.60;100.00
8069;BME280;4077;43.702;24.896;2023-05-09T08:44:47;100230.94;;;10.53;100.00
8069;BME280;4077;43.702;24.896;2023-05-09T08:47:12;100251.22;;;10.74;100.00
8069;BME280;4077;43.702;24.896;2023-05-09T08:49:39;100253.97;;;10.81;100.00
8069;BME280;4077;43.702;24.896;2023-05-09T08:52:05;100250.25;;;10.70;100.00
8069;BME280;4077;43.702;24.896;2023-05-09T08:54:30;100250.53;;;10.82;100.00
8069;BME280;4077;43.702;24.896;2023-05-09T08:56:56;100255.84;;;10.88;100.00
8069;BME280;4077;43.702;24.896;2023-05-09T08:59:23;100253.03;;;10.78;100.00
8069;BME280;4077;43.702;24.896;2023-05-09T09:01:49;100256.69;;;10.87;100.00
8069;BME280;4077;43.702;24.896;2023-05-09T09:04:15;100251.34;;;10.80;100.00
8069;BME280;4077;43.702;24.896;2023-05-09T09:06:41;100256.56;;;10.83;100.00
8069;BME280;4077;43.702;24.896;2023-05-09T09:09:07;100263.88;;;11.01;100.00
8069;BME280;4077;43.702;24.896;2023-05-09T09:11:36;100273.38;;;11.02;100.00
8069;BME280;4077;43.702;24.896;2023-05-09T09:14:11;100249.41;;;11.09;100.00
8069;BME280;4077;43.702;24.896;2023-05-09T09:16:40;100268.84;;;11.32;100.00
8069;BME280;4077;43.702;24.896;2023-05-09T09:19:11;100270.47;;;11.27;100.00
8069;BME280;4077;43.702;24.896;2023-05-09T09:21:40;100266.97;;;11.25;100.00
8069;BME280;4077;43.702;24.896;2023-05-09T09:24:06;100262.59;;;11.21;100.00
8069;BME280;4077;43.702;24.896;2023-05-09T09:26:32;100245.34;;;11.20;100.00
8069;BME280;4077;43.702;24.896;2023-05-09T09:28:57;100265.63;;;11.42;100.00
8069;BME280;4077;43.702;24.896;2023-05-09T09:31:24;100272.78;;;11.56;100.00
8069;BME280;4077;43.702;24.896;2023-05-09T09:33:50;100273.78;;;11.62;100.00
8069;BME280;4077;43.702;24.896;2023-05-09T09:36:25;100278.09;;;11.62;100.00
8069;BME280;4077;43.702;24.896;2023-05-09T09:38:55;100278.81;;;11.55;100.00
8069;BME280;4077;43.702;24.896;2023-05-09T09:41:29;100283.31;;;11.66;100.00
8069;BME280;4077;43.702;24.896;2023-05-09T09:43:55;100277.97;;;11.56;100.00
8069;BME280;4077;43.702;24.896;2023-05-09T09:46:20;100272.28;;;11.73;100.00
8069;BME280;4077;43.702;24.896;2023-05-09T09:48:46;100272.72;;;11.95;100.00
8069;BME280;4077;43.702;24.896;2023-05-09T09:51:18;100280.75;;;12.10;100.00
8069;BME280;4077;43.702;24.896;2023-05-09T09:53:45;100263.34;;;12.01;100.00
8069;BME280;4077;43.702;24.896;2023-05-09T09:56:11;100272.00;;;12.03;100.00
8069;BME280;4077;43.702;24.896;2023-05-09T09:58:37;100266.50;;;11.85;100.00
8069;BME280;4077;43.702;24.896;2023-05-09T10:01:07;100284.88;;;12.00;100.00
8069;BME280;4077;43.702;24.896;2023-05-09T10:03:42;100277.28;;;12.08;100.00
8069;BME280;4077;43.702;24.896;2023-05-09T10:06:12;100285.22;;;12.19;100.00
8069;BME280;4077;43.702;24.896;2023-05-09T10:08:38;100286.19;;;12.24;100.00
8069;BME280;4077;43.702;24.896;2023-05-09T10:11:04;100283.59;;;12.24;100.00
8069;BME280;4077;43.702;24.896;2023-05-09T10:13:33;100277.47;;;12.20;100.00
8069;BME280;4077;43.702;24.896;2023-05-09T10:16:00;100285.25;;;12.20;100.00
8069;BME280;4077;43.702;24.896;2023-05-09T10:18:28;100239.22;;;12.02;100.00
8069;BME280;4077;43.702;24.896;2023-05-09T10:20:55;100262.00;;;12.22;100.00
8069;BME280;4077;43.702;24.896;2023-05-09T10:23:25;100277.66;;;12.31;100.00
8069;BME280;4077;43.702;24.896;2023-05-09T10:26:02;100280.38;;;12.37;100.00
8069;BME280;4077;43.702;24.896;2023-05-09T10:28:31;100284.63;;;12.35;100.00
8069;BME280;4077;43.702;24.896;2023-05-09T10:33:41;100282.03;;;12.35;100.00
8069;BME280;4077;43.702;24.896;2023-05-09T10:36:08;100241.84;;;12.05;100.00
8069;BME280;4077;43.702;24.896;2023-05-09T10:38:35;100274.75;;;12.13;100.00
8069;BME280;4077;43.702;24.896;2023-05-09T10:41:02;100279.22;;;12.21;100.00
8069;BME280;4077;43.702;24.896;2023-05-09T10:43:27;100275.94;;;12.30;100.00
8069;BME280;4077;43.702;24.896;2023-05-09T10:45:54;100264.72;;;12.29;100.00
8069;BME280;4077;43.702;24.896;2023-05-09T10:48:21;100270.03;;;12.40;100.00
8069;BME280;4077;43.702;24.896;2023-05-09T10:50:47;100263.78;;;12.26;100.00
8069;BME280;4077;43.702;24.896;2023-05-09T10:53:13;100255.97;;;12.23;100.00
8069;BME280;4077;43.702;24.896;2023-05-09T10:55:56;100262.88;;;12.77;100.00
8069;BME280;4077;43.702;24.896;2023-05-09T10:58:28;100252.41;;;12.71;100.00
8069;BME280;4077;43.702;24.896;2023-05-09T11:00:59;100259.56;;;12.88;100.00
8069;BME280;4077;43.702;24.896;2023-05-09T11:03:26;100260.81;;;13.17;100.00
8069;BME280;4077;43.702;24.896;2023-05-09T11:05:54;100261.13;;;13.36;100.00
8069;BME280;4077;43.702;24.896;2023-05-09T11:08:24;100265.44;;;13.37;100.00
8069;BME280;4077;43.702;24.896;2023-05-09T11:10:51;100254.19;;;13.37;100.00
8069;BME280;4077;43.702;24.896;2023-05-09T11:13:19;100247.06;;;13.19;100.00
8069;BME280;4077;43.702;24.896;2023-05-09T11:18:29;100257.34;;;13.13;100.00
8069;BME280;4077;43.702;24.896;2023-05-09T11:20:55;100270.22;;;13.08;100.00
8069;BME280;4077;43.702;24.896;2023-05-09T11:23:25;100264.38;;;13.20;100.00
8069;BME280;4077;43.702;24.896;2023-05-09T11:25:51;100256.66;;;13.25;100.00
8069;BME280;4077;43.702;24.896;2023-05-09T11:28:27;100259.53;;;13.46;100.00
8069;BME280;4077;43.702;24.896;2023-05-09T11:31:10;100249.31;;;13.60;100.00
8069;BME280;4077;43.702;24.896;2023-05-09T11:33:37;100255.50;;;13.73;100.00
8069;BME280;4077;43.702;24.896;2023-05-09T11:36:28;100251.47;;;14.01;100.00
8069;BME280;4077;43.702;24.896;2023-05-09T11:39:06;100263.59;;;14.02;100.00
8069;BME280;4077;43.702;24.896;2023-05-09T11:41:42;100253.34;;;14.18;100.00
8069;BME280;4077;43.702;24.896;2023-05-09T11:44:17;100242.69;;;13.89;100.00
8069;BME280;4077;43.702;24.896;2023-05-09T11:46:47;100247.09;;;13.95;100.00
8069;BME280;4077;43.702;24.896;2023-05-09T11:49:13;100222.78;;;13.87;100.00
8069;BME280;4077;43.702;24.896;2023-05-09T11:51:39;100225.41;;;13.91;100.00
8069;BME280;4077;43.702;24.896;2023-05-09T11:54:06;100240.38;;;14.17;100.00
8069;BME280;4077;43.702;24.896;2023-05-09T11:56:38;100252.72;;;14.42;100.00
8069;BME280;4077;43.702;24.896;2023-05-09T11:59:04;100239.56;;;14.21;100.00
8069;BME280;4077;43.702;24.896;2023-05-09T12:01:30;100242.72;;;13.91;100.00
8069;BME280;4077;43.702;24.896;2023-05-09T12:03:57;100243.41;;;13.75;100.00
8069;BME280;4077;43.702;24.896;2023-05-09T12:06:23;100226.81;;;13.59;100.00
8069;BME280;4077;43.702;24.896;2023-05-09T12:08:50;100221.78;;;13.74;100.00
8069;BME280;4077;43.702;24.896;2023-05-09T12:11:16;100236.50;;;13.74;100.00
8069;BME280;4077;43.702;24.896;2023-05-09T12:13:48;100227.91;;;13.81;100.00
8069;BME280;4077;43.702;24.896;2023-05-09T12:16:15;100232.16;;;13.73;100.00
8069;BME280;4077;43.702;24.896;2023-05-09T12:18:45;100221.94;;;13.88;100.00
8069;BME280;4077;43.702;24.896;2023-05-09T12:21:11;100227.94;;;13.84;100.00
8069;BME280;4077;43.702;24.896;2023-05-09T12:23:37;100222.59;;;13.72;100.00
8069;BME280;4077;43.702;24.896;2023-05-09T12:26:02;100222.72;;;13.81;100.00
8069;BME280;4077;43.702;24.896;2023-05-09T12:28:28;100215.75;;;13.75;100.00
8069;BME280;4077;43.702;24.896;2023-05-09T12:30:54;100229.63;;;13.80;100.00
8069;BME280;4077;43.702;24.896;2023-05-09T12:33:20;100217.63;;;13.90;100.00
8069;BME280;4077;43.702;24.896;2023-05-09T12:35:47;100217.63;;;13.90;100.00
8069;BME280;4077;43.702;24.896;2023-05-09T12:38:19;100231.38;;;13.80;100.00
8069;BME280;4077;43.702;24.896;2023-05-09T12:40:59;100209.63;;;13.72;100.00
8069;BME280;4077;43.702;24.896;2023-05-09T12:43:24;100201.75;;;13.59;100.00
8069;BME280;4077;43.702;24.896;2023-05-09T12:45:53;100197.44;;;13.64;100.00
8069;BME280;4077;43.702;24.896;2023-05-09T12:48:21;100203.56;;;13.69;100.00
8069;BME280;4077;43.702;24.896;2023-05-09T12:50:47;100193.97;;;13.62;100.00
8069;BME280;4077;43.702;24.896;2023-05-09T12:53:22;100197.66;;;13.84;100.00
8069;BME280;4077;43.702;24.896;2023-05-09T12:55:47;100195.13;;;13.92;100.00
8069;BME280;4077;43.702;24.896;2023-05-09T12:58:13;100183.88;;;13.91;100.00
8069;BME280;4077;43.702;24.896;2023-05-09T13:00:43;100192.69;;;14.10;100.00
8069;BME280;4077;43.702;24.896;2023-05-09T13:03:28;100175.44;;;14.18;100.00
8069;BME280;4077;43.702;24.896;2023-05-09T13:06:08;100194.66;;;14.34;100.00
8069;BME280;4077;43.702;24.896;2023-05-09T13:08:35;100187.78;;;14.45;100.00